Fontenelle, Wyoming
Current Conditions -  °F | °C
As of 11:15 AM on Thursday 29 Jan 2015 (Local Time) from KEMM Reporting Station
Overcast Overcast  
Wind Chill: 23°   Ceiling: 700
Heat Index: 32°   Visibility: 10mi
Dew Point: 30°   Wind: 12mph
Humidity: 93%   Direction: 60°ENE
Pressure: 30.41"   Gusts: NA
Location:  41.8294°N, 110.31°W
Report Text: KEMM 291815Z AUTO 06010KT 10SM OVC007 00/M01 A3041 RMK AO2
Loading
Personal Weather Stations






























Interactive Weather Map New forecast layout! Learn more

10-Day Weather Forecast

Advertisements
Track Severe Weather on mobile